Time;durP1;ratioP1;P1;durP2;ratioP2;P2;SDS_P1;SDS_P2;PMS_P1;PMS_P2;Temp;Humidity;BMP_temperature;BMP_pressure;BME280_temperature;BME280_humidity;BME280_pressure;Samples;Min_cycle;Max_cycle;Signal;HPM_P1;HPM_P2
2022/09/29 00:01:52;;;;;;;0.70;0.70;;;12.80;96.60;;;;;;4997037;28;20140;-74
2022/09/29 00:04:18;;;;;;;1.55;0.98;;;12.80;95.90;;;;;;4986976;28;20061;-74
2022/09/29 00:06:44;;;;;;;1.17;0.82;;;12.80;95.60;;;;;;4976815;28;20054;-73
2022/09/29 00:09:10;;;;;;;1.02;0.60;;;12.80;95.70;;;;;;4977259;28;20388;-75
2022/09/29 00:11:35;;;;;;;2.00;0.80;;;12.70;95.90;;;;;;4976617;28;20026;-75
2022/09/29 00:14:01;;;;;;;0.90;0.80;;;12.70;96.40;;;;;;4977481;28;20041;-74
2022/09/29 00:16:28;;;;;;;0.80;0.70;;;12.70;96.50;;;;;;4977134;28;20057;-74
2022/09/29 00:18:54;;;;;;;0.82;0.60;;;12.70;97.00;;;;;;4977199;28;20383;-74
2022/09/29 00:21:20;;;;;;;1.85;0.70;;;12.60;97.10;;;;;;4976988;28;20186;-73
2022/09/29 00:23:46;;;;;;;5.90;0.80;;;12.60;96.90;;;;;;4976655;28;20050;-73
2022/09/29 00:26:16;;;;;;;1.52;0.73;;;12.60;97.00;;;;;;4976995;28;20031;-74
2022/09/29 00:28:51;;;;;;;1.20;0.80;;;12.60;97.30;;;;;;4976514;28;20031;-74
2022/09/29 00:31:17;;;;;;;1.77;0.60;;;12.60;97.60;;;;;;4977018;28;20102;-74
2022/09/29 00:33:43;;;;;;;1.60;0.90;;;12.60;97.60;;;;;;4976767;28;20456;-74
2022/09/29 00:36:13;;;;;;;0.90;0.60;;;12.60;97.80;;;;;;4976904;28;20031;-73
2022/09/29 00:38:40;;;;;;;0.93;0.70;;;12.60;98.00;;;;;;4976330;28;20058;-74
2022/09/29 00:41:07;;;;;;;2.67;0.95;;;12.60;97.80;;;;;;4976884;28;20038;-74
2022/09/29 00:44:00;;;;;;;2.60;0.93;;;12.50;98.10;;;;;;4988709;28;20054;-73
2022/09/29 00:46:35;;;;;;;1.42;0.80;;;12.50;98.20;;;;;;4996038;28;20031;-74
2022/09/29 00:49:23;;;;;;;0.80;0.70;;;12.50;98.50;;;;;;4996345;28;20034;-73
2022/09/29 00:52:07;;;;;;;1.38;0.70;;;12.50;98.90;;;;;;4995580;28;20034;-74
2022/09/29 00:54:40;;;;;;;1.17;0.90;;;12.50;99.40;;;;;;4995261;28;20539;-73
2022/09/29 00:57:10;;;;;;;4.10;1.02;;;12.40;99.90;;;;;;4995932;28;20034;-74
2022/09/29 00:59:56;;;;;;;2.83;1.20;;;12.40;99.90;;;;;;4995450;28;20538;-74
2022/09/29 01:02:22;;;;;;;0.77;0.65;;;12.40;99.90;;;;;;4994892;28;20039;-73
2022/09/29 01:04:50;;;;;;;1.25;0.82;;;12.40;99.90;;;;;;4994895;28;20034;-73
2022/09/29 01:07:16;;;;;;;1.00;0.90;;;12.30;99.90;;;;;;4995813;28;20038;-74
2022/09/29 01:09:43;;;;;;;1.63;0.85;;;12.30;99.90;;;;;;4994673;28;20110;-73
2022/09/29 01:12:09;;;;;;;1.60;0.70;;;12.30;99.90;;;;;;4995442;28;20494;-74
2022/09/29 01:14:37;;;;;;;0.80;0.70;;;12.30;99.90;;;;;;4995127;28;20030;-74
2022/09/29 01:17:03;;;;;;;0.80;0.73;;;12.30;99.90;;;;;;4995210;28;20076;-74
2022/09/29 01:19:45;;;;;;;1.23;0.90;;;12.30;99.90;;;;;;4995308;28;20117;-73
2022/09/29 01:22:16;;;;;;;4.38;1.10;;;12.30;99.90;;;;;;4995345;28;20110;-73
2022/09/29 01:24:50;;;;;;;0.93;0.80;;;12.20;99.90;;;;;;4994783;28;20029;-73
2022/09/29 01:27:31;;;;;;;0.70;0.70;;;12.20;99.90;;;;;;4995193;28;20383;-73
2022/09/29 01:30:06;;;;;;;1.15;1.00;;;12.20;99.90;;;;;;4994838;28;20089;-73
2022/09/29 01:32:57;;;;;;;2.88;1.00;;;12.20;99.90;;;;;;4995200;28;20038;-74
2022/09/29 01:35:25;;;;;;;1.38;1.00;;;12.20;99.90;;;;;;4995146;28;20026;-74
2022/09/29 01:38:19;;;;;;;1.33;0.70;;;12.20;99.90;;;;;;4994583;28;20066;-73
2022/09/29 01:41:00;;;;;;;0.85;0.80;;;12.20;99.90;;;;;;4994611;28;20034;-73
2022/09/29 01:44:10;;;;;;;1.50;0.98;;;12.30;99.90;;;;;;4994506;28;20053;-74
2022/09/29 01:46:45;;;;;;;2.60;1.00;;;12.20;99.90;;;;;;4934003;29;20040;-73
2022/09/29 01:49:13;;;;;;;2.13;1.30;;;12.30;99.90;;;;;;4934899;29;20036;-73
2022/09/29 01:51:50;;;;;;;2.30;1.38;;;12.30;99.90;;;;;;4957564;28;20042;-73
2022/09/29 01:54:22;;;;;;;2.03;1.13;;;12.30;99.90;;;;;;4975017;28;20113;-74
2022/09/29 01:57:01;;;;;;;1.92;1.25;;;12.20;99.90;;;;;;4978018;28;20382;-74
2022/09/29 01:59:34;;;;;;;1.63;1.27;;;12.20;99.90;;;;;;4975270;28;20035;-73
2022/09/29 02:02:05;;;;;;;1.08;0.98;;;12.20;99.90;;;;;;4974814;28;20027;-73
2022/09/29 02:04:41;;;;;;;1.33;1.00;;;12.20;99.90;;;;;;4975275;28;20114;-73
2022/09/29 02:07:18;;;;;;;2.03;1.27;;;12.30;99.90;;;;;;4976630;28;20121;-73
2022/09/29 02:09:49;;;;;;;2.53;1.50;;;12.30;99.90;;;;;;4974554;28;20031;-73
2022/09/29 02:12:21;;;;;;;2.13;1.48;;;12.30;99.90;;;;;;4974728;28;20444;-74
2022/09/29 02:14:49;;;;;;;1.48;1.17;;;12.30;99.90;;;;;;4974083;28;20082;-73
2022/09/29 02:17:21;;;;;;;2.05;1.15;;;12.20;99.90;;;;;;4974204;28;20428;-74
2022/09/29 02:19:50;;;;;;;3.22;1.70;;;12.20;99.90;;;;;;4974660;28;20058;-75
2022/09/29 02:22:16;;;;;;;1.65;1.27;;;12.20;99.90;;;;;;4974891;28;20053;-74
2022/09/29 02:24:43;;;;;;;1.23;1.13;;;12.20;99.90;;;;;;4974727;28;20110;-73
2022/09/29 02:27:09;;;;;;;1.30;1.10;;;12.20;99.90;;;;;;4974585;28;20058;-74
2022/09/29 02:29:36;;;;;;;1.40;1.10;;;12.30;99.90;;;;;;4973342;28;20027;-74
2022/09/29 02:32:03;;;;;;;2.45;1.70;;;12.30;99.90;;;;;;4974290;28;20023;-73
2022/09/29 02:34:32;;;;;;;2.10;1.23;;;12.30;99.90;;;;;;4974734;28;20109;-74
2022/09/29 02:37:14;;;;;;;3.20;1.40;;;12.30;99.90;;;;;;4974224;28;20035;-74
2022/09/29 02:40:09;;;;;;;1.60;1.02;;;12.20;99.90;;;;;;4974717;28;20039;-75
2022/09/29 02:43:22;;;;;;;1.10;1.00;;;12.20;99.90;;;;;;4955104;28;20050;-74
2022/09/29 02:46:06;;;;;;;1.48;0.93;;;12.20;99.90;;;;;;4968976;28;20042;-75
2022/09/29 02:49:09;;;;;;;1.35;1.10;;;12.20;99.90;;;;;;4974466;28;20031;-73
2022/09/29 02:51:46;;;;;;;1.30;0.90;;;12.10;99.90;;;;;;4974388;28;20026;-74
2022/09/29 02:54:24;;;;;;;2.22;1.20;;;12.10;99.90;;;;;;4974541;28;20034;-73
2022/09/29 02:57:04;;;;;;;2.50;1.05;;;12.00;99.90;;;;;;4973935;28;20034;-72
2022/09/29 02:59:53;;;;;;;1.88;1.30;;;12.00;99.90;;;;;;4974844;28;20039;-74
2022/09/29 03:02:26;;;;;;;1.55;1.30;;;11.90;99.90;;;;;;4974317;28;20057;-75
2022/09/29 03:04:52;;;;;;;1.88;1.23;;;11.90;99.90;;;;;;4973817;28;20031;-74
2022/09/29 03:07:19;;;;;;;3.05;1.55;;;11.90;99.90;;;;;;4974371;28;20023;-74
2022/09/29 03:09:45;;;;;;;2.90;1.67;;;11.80;99.90;;;;;;4973781;28;20038;-74
2022/09/29 03:12:11;;;;;;;2.88;1.60;;;11.80;99.90;;;;;;4974172;28;20034;-74
2022/09/29 03:14:36;;;;;;;1.70;1.38;;;11.80;99.90;;;;;;4974020;28;20107;-73
2022/09/29 03:17:02;;;;;;;2.15;1.70;;;11.70;99.90;;;;;;4973288;28;20119;-73
2022/09/29 03:19:28;;;;;;;2.85;2.10;;;11.60;99.90;;;;;;4973929;28;20042;-75
2022/09/29 03:21:54;;;;;;;2.53;1.83;;;11.60;99.90;;;;;;4973684;28;20026;-74
2022/09/29 03:24:19;;;;;;;4.22;2.10;;;11.60;99.90;;;;;;4973974;28;20073;-74
2022/09/29 03:26:45;;;;;;;2.13;1.75;;;11.60;99.90;;;;;;4973437;28;20034;-74
2022/09/29 03:29:11;;;;;;;3.03;2.08;;;11.60;99.90;;;;;;4974152;28;20460;-74
2022/09/29 03:31:38;;;;;;;3.90;2.10;;;11.60;99.90;;;;;;4973737;28;20027;-74
2022/09/29 03:34:04;;;;;;;3.60;2.35;;;11.60;99.90;;;;;;4973211;28;20031;-74
2022/09/29 03:36:30;;;;;;;3.08;2.50;;;11.60;99.90;;;;;;4973512;28;20051;-74
2022/09/29 03:38:55;;;;;;;4.60;2.65;;;11.60;99.90;;;;;;4973182;28;20087;-74
2022/09/29 03:41:21;;;;;;;4.25;2.83;;;11.50;99.90;;;;;;4976541;28;20033;-75
2022/09/29 03:43:47;;;;;;;4.13;2.40;;;11.50;99.90;;;;;;4989714;28;20042;-74
2022/09/29 03:46:12;;;;;;;4.03;3.20;;;11.40;99.90;;;;;;4990805;28;20460;-76
2022/09/29 03:48:38;;;;;;;8.20;3.38;;;11.40;99.90;;;;;;4989710;28;20031;-75
2022/09/29 03:51:04;;;;;;;3.22;2.58;;;11.40;99.90;;;;;;4990284;28;20033;-73
2022/09/29 03:53:32;;;;;;;3.22;2.65;;;11.40;99.90;;;;;;4988372;28;20387;-74
2022/09/29 03:55:57;;;;;;;5.82;3.35;;;11.40;99.90;;;;;;4990604;28;20026;-74
2022/09/29 03:58:23;;;;;;;5.38;2.67;;;11.40;99.90;;;;;;4989682;28;20034;-74
2022/09/29 04:00:49;;;;;;;6.03;2.88;;;11.40;99.90;;;;;;4990187;28;20474;-73
2022/09/29 04:03:15;;;;;;;4.43;2.83;;;11.40;99.90;;;;;;4990858;28;20110;-75
2022/09/29 04:05:40;;;;;;;5.22;2.15;;;11.30;99.90;;;;;;4984119;28;20475;-75
2022/09/29 04:08:07;;;;;;;3.45;2.30;;;11.30;99.90;;;;;;4990996;28;20031;-74
2022/09/29 04:10:39;;;;;;;4.35;2.50;;;11.30;99.90;;;;;;4989385;28;20407;-75
2022/09/29 04:13:06;;;;;;;3.05;2.08;;;11.30;99.90;;;;;;4977212;28;20030;-75
2022/09/29 04:15:32;;;;;;;2.53;1.92;;;11.20;99.90;;;;;;4988751;28;20038;-75
2022/09/29 04:17:58;;;;;;;3.25;2.30;;;11.20;99.90;;;;;;4992334;28;20117;-74
2022/09/29 04:20:24;;;;;;;2.53;1.70;;;11.20;99.90;;;;;;4992933;28;20527;-76
2022/09/29 04:22:50;;;;;;;2.33;1.80;;;11.20;99.90;;;;;;4992578;28;20026;-74
2022/09/29 04:25:16;;;;;;;2.05;1.75;;;11.20;99.90;;;;;;4992837;28;20026;-74
2022/09/29 04:27:41;;;;;;;5.72;1.83;;;11.20;99.90;;;;;;4992476;28;20357;-75
2022/09/29 04:30:08;;;;;;;2.10;1.90;;;11.20;99.90;;;;;;4992678;28;20113;-75
2022/09/29 04:32:34;;;;;;;11.15;1.90;;;11.10;99.90;;;;;;4992385;28;20109;-75
2022/09/29 04:35:00;;;;;;;2.58;1.63;;;11.10;99.90;;;;;;4992374;28;20218;-75
2022/09/29 04:37:25;;;;;;;2.00;1.73;;;11.10;99.90;;;;;;4992748;28;20435;-75
2022/09/29 04:39:54;;;;;;;3.45;1.80;;;11.10;99.90;;;;;;4994921;28;20080;-74
2022/09/29 04:42:20;;;;;;;3.80;1.90;;;11.10;99.90;;;;;;4996148;28;20034;-75
2022/09/29 04:44:46;;;;;;;2.85;1.90;;;11.10;99.90;;;;;;4996188;28;20030;-75
2022/09/29 04:47:12;;;;;;;1.67;1.42;;;11.10;99.90;;;;;;4995591;28;20227;-74
2022/09/29 04:49:37;;;;;;;2.33;1.63;;;11.10;99.90;;;;;;4995756;28;20030;-75
2022/09/29 04:52:04;;;;;;;2.50;1.80;;;11.10;99.90;;;;;;4995531;28;20031;-74
2022/09/29 04:54:33;;;;;;;2.70;1.77;;;11.10;99.90;;;;;;4981012;28;20182;-75
2022/09/29 04:57:00;;;;;;;4.32;1.83;;;11.10;99.90;;;;;;4958492;28;20113;-74
2022/09/29 04:59:26;;;;;;;1.90;1.60;;;11.10;99.90;;;;;;4976362;28;20026;-74
2022/09/29 05:01:52;;;;;;;3.53;1.98;;;11.10;99.90;;;;;;4976297;28;20106;-74
2022/09/29 05:04:18;;;;;;;3.10;2.13;;;11.10;99.90;;;;;;4976180;28;20102;-74
2022/09/29 05:06:44;;;;;;;3.33;2.03;;;11.10;99.90;;;;;;4975806;28;20031;-75
2022/09/29 05:09:09;;;;;;;2.28;1.70;;;11.10;99.90;;;;;;4975708;28;20031;-75
2022/09/29 05:11:35;;;;;;;6.20;1.90;;;11.10;99.90;;;;;;4976239;28;20113;-76
2022/09/29 05:14:01;;;;;;;3.55;2.50;;;11.10;99.90;;;;;;4975732;28;20022;-74
2022/09/29 05:16:27;;;;;;;5.22;2.35;;;11.10;99.90;;;;;;4975944;28;20125;-75
2022/09/29 05:18:52;;;;;;;2.33;1.98;;;11.10;99.90;;;;;;4976215;28;20535;-75
2022/09/29 05:21:18;;;;;;;5.80;2.20;;;11.10;99.90;;;;;;4975345;28;20391;-75
2022/09/29 05:23:44;;;;;;;2.88;1.77;;;11.10;99.90;;;;;;4958685;28;20038;-75
2022/09/29 05:26:11;;;;;;;2.65;2.03;;;11.20;99.90;;;;;;4975377;28;20125;-74
2022/09/29 05:28:38;;;;;;;2.60;1.80;;;11.20;99.90;;;;;;4975909;28;20027;-75
2022/09/29 05:31:08;;;;;;;2.40;1.92;;;11.20;99.90;;;;;;4975340;28;20034;-74
2022/09/29 05:33:35;;;;;;;2.65;1.70;;;11.10;99.90;;;;;;4975654;28;20065;-74
2022/09/29 05:36:06;;;;;;;2.88;1.75;;;11.20;99.90;;;;;;4975018;28;20034;-74
2022/09/29 05:38:32;;;;;;;2.60;1.70;;;11.20;99.90;;;;;;4975859;28;20035;-75
2022/09/29 05:40:57;;;;;;;2.10;1.70;;;11.20;99.90;;;;;;4975250;28;20375;-74
2022/09/29 05:43:24;;;;;;;2.53;1.60;;;11.20;99.90;;;;;;4975713;28;20098;-75
2022/09/29 05:45:49;;;;;;;2.08;1.50;;;11.20;99.90;;;;;;4975380;28;20456;-75
2022/09/29 05:48:17;;;;;;;3.72;1.60;;;11.20;99.90;;;;;;4974943;28;20038;-74
2022/09/29 05:50:42;;;;;;;4.28;1.55;;;11.20;99.90;;;;;;4974384;28;20478;-75
2022/09/29 05:53:11;;;;;;;2.03;1.73;;;11.30;99.90;;;;;;4957598;28;20031;-76
2022/09/29 05:55:37;;;;;;;4.70;1.80;;;11.30;99.90;;;;;;4975446;28;20375;-75
2022/09/29 05:58:04;;;;;;;3.70;1.52;;;11.30;99.90;;;;;;4984610;28;20041;-74
2022/09/29 06:00:31;;;;;;;2.13;1.60;;;11.40;99.90;;;;;;4992656;28;20033;-74
2022/09/29 06:03:00;;;;;;;9.00;2.15;;;11.40;99.90;;;;;;4993986;28;20030;-73
2022/09/29 06:05:27;;;;;;;1.90;1.55;;;11.40;99.90;;;;;;4993911;28;20467;-75
2022/09/29 06:07:54;;;;;;;3.13;1.88;;;11.30;99.90;;;;;;4994522;28;20031;-74
2022/09/29 06:10:20;;;;;;;4.07;1.88;;;11.40;99.90;;;;;;4994027;28;20034;-75
2022/09/29 06:12:46;;;;;;;2.00;1.35;;;11.40;99.90;;;;;;4994362;28;20030;-74
2022/09/29 06:15:12;;;;;;;1.58;1.40;;;11.40;99.90;;;;;;4993766;28;20058;-74
2022/09/29 06:17:38;;;;;;;4.07;1.63;;;11.40;99.90;;;;;;4993977;28;20041;-74
2022/09/29 06:20:05;;;;;;;4.45;1.80;;;11.40;99.90;;;;;;4993982;28;20039;-75
2022/09/29 06:22:32;;;;;;;2.03;1.45;;;11.40;99.90;;;;;;4992984;28;20039;-76
2022/09/29 06:24:57;;;;;;;3.08;1.58;;;11.40;99.90;;;;;;4991102;28;20022;-74
2022/09/29 06:27:23;;;;;;;2.83;1.70;;;11.50;99.90;;;;;;4991879;28;20045;-75
2022/09/29 06:29:49;;;;;;;3.33;1.85;;;11.50;99.90;;;;;;4991958;28;20360;-74
2022/09/29 06:32:15;;;;;;;6.68;1.88;;;11.50;99.90;;;;;;4991065;28;20022;-74
2022/09/29 06:37:34;;;;;;;1.90;1.23;;;11.40;99.90;;;;;;4993697;28;20395;-74
2022/09/29 06:40:01;;;;;;;2.63;1.52;;;11.40;99.90;;;;;;4993632;28;20034;-73
2022/09/29 06:42:27;;;;;;;4.13;2.28;;;11.40;99.90;;;;;;4993395;28;20077;-75
2022/09/29 06:44:53;;;;;;;2.47;1.60;;;11.40;99.90;;;;;;4993390;28;20030;-74
2022/09/29 06:47:19;;;;;;;5.30;1.75;;;11.40;99.90;;;;;;4993303;28;20026;-74
2022/09/29 06:49:45;;;;;;;3.47;1.92;;;11.40;99.90;;;;;;4993734;28;20053;-74
2022/09/29 06:52:10;;;;;;;3.40;1.50;;;11.40;99.90;;;;;;4993374;28;20019;-74
2022/09/29 06:54:36;;;;;;;3.78;1.30;;;11.40;99.90;;;;;;4993597;28;20378;-77
2022/09/29 06:57:02;;;;;;;2.38;1.73;;;11.40;99.90;;;;;;4990694;28;20064;-74
2022/09/29 06:59:27;;;;;;;2.85;2.13;;;11.40;99.90;;;;;;4991325;28;20034;-75
2022/09/29 07:01:53;;;;;;;2.67;1.70;;;11.50;99.90;;;;;;4993067;28;20101;-75
2022/09/29 07:04:20;;;;;;;2.15;1.50;;;11.50;99.90;;;;;;4975460;28;20048;-77
2022/09/29 07:06:46;;;;;;;2.42;1.75;;;11.50;99.90;;;;;;4993345;28;20143;-75
2022/09/29 07:09:14;;;;;;;2.00;1.80;;;11.50;99.90;;;;;;4992886;28;20034;-75
2022/09/29 07:11:45;;;;;;;3.75;2.13;;;11.60;99.90;;;;;;4993150;28;20034;-76
2022/09/29 07:14:14;;;;;;;1.70;1.52;;;11.60;99.90;;;;;;4992960;28;20042;-76
2022/09/29 07:16:40;;;;;;;2.03;1.48;;;11.60;99.90;;;;;;4975968;28;20458;-75
2022/09/29 07:19:06;;;;;;;2.00;1.65;;;11.70;99.90;;;;;;4992970;28;20038;-76
2022/09/29 07:21:32;;;;;;;2.67;1.73;;;11.70;99.90;;;;;;4993429;28;20029;-75
2022/09/29 07:23:57;;;;;;;2.45;1.65;;;11.80;99.90;;;;;;4993310;28;20463;-76
2022/09/29 07:26:23;;;;;;;8.07;2.50;;;11.90;99.90;;;;;;4992481;28;20038;-75
2022/09/29 07:28:49;;;;;;;2.60;1.80;;;12.00;99.90;;;;;;4993115;28;20096;-74
2022/09/29 07:31:17;;;;;;;4.18;2.47;;;12.10;99.90;;;;;;4993012;28;20039;-76
2022/09/29 07:33:43;;;;;;;6.93;2.13;;;12.20;99.90;;;;;;4993061;28;20042;-76
2022/09/29 07:36:09;;;;;;;2.33;1.75;;;12.40;99.90;;;;;;4992512;28;20030;-74
2022/09/29 07:38:35;;;;;;;2.95;1.58;;;12.50;99.90;;;;;;4993091;28;20070;-74
2022/09/29 07:41:03;;;;;;;2.42;1.80;;;12.60;99.90;;;;;;4993016;28;20063;-75
2022/09/29 07:43:30;;;;;;;2.13;1.40;;;12.70;99.90;;;;;;4992759;28;20506;-76
2022/09/29 07:45:55;;;;;;;5.47;1.90;;;12.90;99.90;;;;;;4975541;28;20456;-77
2022/09/29 07:48:21;;;;;;;2.15;1.60;;;13.00;99.90;;;;;;4992513;28;20025;-76
2022/09/29 07:50:47;;;;;;;7.97;1.80;;;13.10;99.90;;;;;;4969980;28;20415;-76
2022/09/29 07:53:13;;;;;;;3.60;1.92;;;13.20;99.90;;;;;;4992692;28;20023;-75
2022/09/29 07:55:39;;;;;;;3.28;2.00;;;13.20;99.90;;;;;;4993010;28;20065;-74
2022/09/29 07:58:05;;;;;;;5.45;1.98;;;13.40;99.90;;;;;;4992662;28;20030;-74
2022/09/29 08:00:32;;;;;;;3.28;2.00;;;13.50;99.90;;;;;;4993225;28;20026;-76
2022/09/29 08:03:06;;;;;;;2.28;1.85;;;13.80;99.40;;;;;;4993067;28;20018;-76
2022/09/29 08:05:33;;;;;;;3.70;1.63;;;14.00;98.40;;;;;;4993177;28;20034;-75
2022/09/29 08:08:03;;;;;;;2.10;1.60;;;13.90;97.20;;;;;;4993044;28;20145;-77
2022/09/29 08:10:31;;;;;;;3.88;1.88;;;13.90;97.10;;;;;;4992914;28;20038;-76
2022/09/29 08:12:57;;;;;;;2.08;1.58;;;13.90;96.80;;;;;;4992885;28;20072;-76
2022/09/29 08:15:24;;;;;;;2.30;1.20;;;13.90;96.90;;;;;;4995898;28;20085;-75
2022/09/29 08:17:53;;;;;;;1.90;1.70;;;13.80;97.00;;;;;;4996407;28;20109;-76
2022/09/29 08:20:19;;;;;;;4.28;1.50;;;13.90;96.60;;;;;;4996191;28;20375;-76
2022/09/29 08:22:45;;;;;;;3.90;1.70;;;13.90;96.20;;;;;;4996574;28;20029;-76
2022/09/29 08:25:11;;;;;;;3.95;2.10;;;13.90;96.50;;;;;;4996252;28;20023;-75
2022/09/29 08:27:36;;;;;;;2.63;1.80;;;13.90;96.90;;;;;;4996291;28;20108;-75
2022/09/29 08:30:03;;;;;;;2.30;1.83;;;13.90;96.10;;;;;;4996074;28;20106;-76
2022/09/29 08:32:28;;;;;;;3.25;1.50;;;14.10;97.00;;;;;;4996126;28;20030;-77
2022/09/29 08:34:54;;;;;;;3.58;1.40;;;14.20;95.60;;;;;;4996841;28;20408;-76
2022/09/29 08:37:19;;;;;;;5.13;2.33;;;14.20;95.20;;;;;;4995638;28;20057;-75
2022/09/29 08:39:45;;;;;;;2.75;1.55;;;14.20;95.60;;;;;;4996346;28;20026;-76
2022/09/29 08:42:16;;;;;;;1.38;1.27;;;14.40;95.50;;;;;;4995602;28;20081;-76
2022/09/29 08:44:45;;;;;;;2.33;1.30;;;14.60;94.20;;;;;;4995101;28;20360;-76
2022/09/29 08:47:35;;;;;;;3.45;1.77;;;14.70;94.10;;;;;;4995466;28;20038;-76
2022/09/29 08:50:09;;;;;;;2.92;1.45;;;14.80;93.00;;;;;;4996068;28;20034;-75
2022/09/29 08:52:39;;;;;;;3.75;1.75;;;15.00;92.70;;;;;;4995938;28;20110;-76
2022/09/29 08:55:17;;;;;;;2.08;1.70;;;15.10;92.60;;;;;;4995588;28;20514;-77
2022/09/29 08:57:47;;;;;;;4.03;2.05;;;15.20;92.40;;;;;;4995779;28;20058;-76
2022/09/29 09:00:15;;;;;;;2.67;1.70;;;15.30;91.90;;;;;;4995488;28;20061;-76
2022/09/29 09:03:17;;;;;;;2.00;1.58;;;15.40;91.80;;;;;;4995725;28;20027;-76
2022/09/29 09:06:08;;;;;;;5.32;1.50;;;15.30;90.10;;;;;;4995381;28;20029;-76
2022/09/29 09:08:42;;;;;;;2.43;1.50;;;15.30;90.00;;;;;;4995804;28;20030;-77
2022/09/29 09:11:26;;;;;;;3.47;1.65;;;15.30;90.00;;;;;;4995613;28;20044;-76
2022/09/29 09:14:19;;;;;;;3.10;1.60;;;15.30;90.80;;;;;;4995661;28;20026;-78
2022/09/29 09:17:10;;;;;;;2.28;1.25;;;15.40;90.30;;;;;;4995673;28;20129;-76
2022/09/29 09:19:54;;;;;;;4.38;1.58;;;15.30;89.50;;;;;;4995570;28;20034;-76
2022/09/29 09:22:34;;;;;;;2.42;1.58;;;15.30;89.70;;;;;;4995372;28;20391;-76
2022/09/29 09:25:06;;;;;;;2.78;1.60;;;15.40;90.40;;;;;;4995074;28;20030;-77
2022/09/29 09:27:41;;;;;;;3.05;1.63;;;15.50;88.40;;;;;;4995050;28;20026;-76
2022/09/29 09:30:18;;;;;;;1.75;1.30;;;15.40;87.20;;;;;;4995121;28;20145;-75
2022/09/29 09:32:55;;;;;;;2.10;1.45;;;15.50;87.00;;;;;;4995685;28;20449;-76
2022/09/29 09:35:40;;;;;;;2.47;1.42;;;15.50;87.10;;;;;;4994864;28;20027;-76
2022/09/29 09:38:14;;;;;;;6.00;1.73;;;15.50;88.30;;;;;;4995094;28;20553;-77
2022/09/29 09:40:43;;;;;;;2.20;1.30;;;15.60;88.60;;;;;;4995164;28;20098;-76
2022/09/29 09:43:23;;;;;;;2.95;1.33;;;15.60;86.20;;;;;;4994677;28;20520;-76
2022/09/29 09:46:19;;;;;;;1.98;1.50;;;15.60;85.10;;;;;;4993409;28;20089;-76
2022/09/29 09:49:14;;;;;;;2.10;1.48;;;15.70;85.70;;;;;;4990734;28;20049;-74
2022/09/29 09:51:55;;;;;;;2.97;1.58;;;15.70;86.60;;;;;;4974803;28;20042;-76
2022/09/29 09:54:31;;;;;;;2.33;2.13;;;15.80;85.60;;;;;;4975045;28;20483;-76
2022/09/29 09:57:05;;;;;;;2.45;1.40;;;15.80;85.10;;;;;;4975441;28;20391;-75
2022/09/29 09:59:45;;;;;;;2.55;1.50;;;15.90;83.40;;;;;;4974737;28;20034;-74
2022/09/29 10:02:21;;;;;;;4.63;1.55;;;15.90;81.10;;;;;;4975164;28;20483;-76
2022/09/29 10:04:50;;;;;;;3.33;1.70;;;15.90;81.30;;;;;;4975228;28;20070;-75
2022/09/29 10:07:18;;;;;;;4.50;2.50;;;15.90;81.40;;;;;;4974645;28;20090;-75
2022/09/29 10:09:44;;;;;;;2.33;1.48;;;15.90;82.00;;;;;;4974659;28;20114;-78
2022/09/29 10:12:18;;;;;;;6.13;1.50;;;16.00;81.00;;;;;;4974885;28;20073;-76
2022/09/29 10:14:53;;;;;;;2.60;1.80;;;16.00;79.60;;;;;;4974873;28;20031;-77
2022/09/29 10:17:22;;;;;;;1.70;1.10;;;16.00;79.70;;;;;;4974464;28;20033;-78
2022/09/29 10:20:04;;;;;;;2.40;1.30;;;16.00;77.70;;;;;;4974825;28;20396;-78
2022/09/29 10:22:31;;;;;;;1.40;1.02;;;16.00;78.00;;;;;;4974462;28;20034;-76
2022/09/29 10:25:17;;;;;;;1.30;1.08;;;16.00;79.20;;;;;;4974699;28;20357;-76
2022/09/29 10:27:47;;;;;;;2.08;1.38;;;16.00;78.30;;;;;;4974674;28;20468;-76
2022/09/29 10:30:31;;;;;;;2.05;1.27;;;16.00;77.80;;;;;;4974582;28;20031;-76
2022/09/29 10:32:59;;;;;;;2.28;1.08;;;16.10;78.30;;;;;;4974325;28;20441;-76
2022/09/29 10:35:31;;;;;;;1.15;0.93;;;16.10;77.30;;;;;;4974093;28;20113;-75
2022/09/29 10:38:02;;;;;;;1.73;1.10;;;16.10;76.90;;;;;;4973692;28;20031;-78
2022/09/29 10:40:27;;;;;;;;;;;16.10;75.80;;;;;;4974465;28;20030;-75
2022/09/29 10:42:56;;;;;;;2.63;1.40;;;16.10;77.00;;;;;;4981549;28;19917;-76
2022/09/29 10:45:24;;;;;;;1.67;1.25;;;16.20;76.10;;;;;;4993186;28;20100;-75
2022/09/29 10:47:56;;;;;;;1.90;1.20;;;16.10;74.70;;;;;;4993778;28;20034;-76
2022/09/29 10:50:27;;;;;;;4.43;1.50;;;16.00;74.90;;;;;;4993393;28;20096;-76
2022/09/29 10:53:03;;;;;;;1.67;1.20;;;15.90;74.40;;;;;;4994137;28;20030;-76
2022/09/29 10:55:34;;;;;;;3.60;1.20;;;15.90;76.30;;;;;;4993165;28;20042;-75
2022/09/29 10:58:08;;;;;;;;;;;15.90;76.60;;;;;;4994016;28;20109;-77
2022/09/29 11:00:37;;;;;;;3.45;1.35;;;15.90;75.70;;;;;;4993251;28;20334;-76
2022/09/29 11:03:25;;;;;;;1.88;1.20;;;16.00;76.20;;;;;;4993093;28;20026;-76
2022/09/29 11:05:58;;;;;;;4.35;1.73;;;16.10;76.80;;;;;;4993874;28;20046;-76
2022/09/29 11:08:26;;;;;;;2.03;1.10;;;16.10;75.40;;;;;;4992926;28;20026;-75
2022/09/29 11:11:38;;;;;;;3.03;1.20;;;16.20;75.00;;;;;;4993589;28;20122;-76
2022/09/29 11:14:04;;;;;;;1.05;0.93;;;16.20;74.40;;;;;;4993408;28;20049;-75
2022/09/29 11:16:36;;;;;;;3.17;1.10;;;16.20;74.80;;;;;;4992973;28;20089;-74
2022/09/29 11:19:09;;;;;;;1.55;1.10;;;16.20;74.70;;;;;;4993244;28;20030;-75
2022/09/29 11:21:41;;;;;;;2.30;1.60;;;16.30;74.60;;;;;;4993326;28;20474;-76
2022/09/29 11:24:31;;;;;;;1.83;1.10;;;16.40;74.70;;;;;;4993495;28;20026;-76
2022/09/29 11:27:12;;;;;;;1.42;1.05;;;16.40;74.50;;;;;;4993398;28;20030;-76
2022/09/29 11:29:50;;;;;;;3.03;1.33;;;16.50;74.80;;;;;;4993035;28;20383;-75
2022/09/29 11:32:33;;;;;;;1.90;1.45;;;16.60;73.80;;;;;;4993341;28;20116;-77
2022/09/29 11:35:25;;;;;;;2.33;1.33;;;16.80;75.40;;;;;;4993339;28;20109;-77
2022/09/29 11:38:35;;;;;;;1.77;1.00;;;16.90;73.00;;;;;;4993180;28;20429;-76
2022/09/29 11:41:33;;;;;;;2.78;1.08;;;17.00;70.50;;;;;;4949792;28;20100;-75
2022/09/29 11:44:40;;;;;;;1.77;1.17;;;17.00;70.90;;;;;;4993463;28;20479;-75
2022/09/29 11:47:29;;;;;;;1.55;0.90;;;17.10;71.20;;;;;;4913779;29;20040;-76
2022/09/29 11:50:32;;;;;;;3.92;1.00;;;17.30;69.20;;;;;;4975319;28;20039;-77
2022/09/29 11:53:39;;;;;;;2.85;1.30;;;17.40;67.90;;;;;;4993615;28;20034;-76
2022/09/29 11:56:21;;;;;;;1.55;0.93;;;17.50;68.00;;;;;;4996903;28;20026;-75
2022/09/29 11:59:06;;;;;;;2.03;1.00;;;17.50;67.20;;;;;;4996905;28;20061;-77
2022/09/29 12:01:45;;;;;;;2.45;1.13;;;17.60;67.60;;;;;;4996647;28;20038;-77
2022/09/29 12:04:30;;;;;;;1.08;0.88;;;17.70;67.00;;;;;;4996867;28;20475;-75
2022/09/29 12:06:58;;;;;;;1.63;0.90;;;17.60;66.90;;;;;;4980635;28;20023;-74
2022/09/29 12:09:53;;;;;;;1.90;1.30;;;17.60;66.00;;;;;;4996109;28;20179;-73
2022/09/29 12:12:28;;;;;;;2.30;0.90;;;17.50;65.10;;;;;;4996900;28;20049;-76
2022/09/29 12:15:30;;;;;;;3.53;0.98;;;17.40;65.70;;;;;;4997379;28;20027;-76
2022/09/29 12:18:01;;;;;;;2.15;1.20;;;17.40;66.60;;;;;;4917344;29;20512;-76
2022/09/29 12:20:30;;;;;;;1.10;0.90;;;17.30;66.90;;;;;;4982587;28;20038;-76
2022/09/29 12:23:00;;;;;;;3.95;1.20;;;17.30;66.30;;;;;;4996528;28;20026;-76
2022/09/29 12:25:29;;;;;;;1.30;1.00;;;17.30;66.70;;;;;;4995877;28;20383;-74
2022/09/29 12:28:04;;;;;;;2.55;1.20;;;17.30;66.10;;;;;;4996245;28;20026;-78
2022/09/29 12:30:42;;;;;;;3.45;2.22;;;17.30;66.10;;;;;;4995974;28;20045;-76
2022/09/29 12:33:15;;;;;;;1.15;1.00;;;17.40;65.90;;;;;;4996436;28;20030;-77
2022/09/29 12:36:42;;;;;;;1.63;1.08;;;17.40;66.90;;;;;;4995732;28;20486;-76
2022/09/29 12:38:59;;;;;;;1.52;1.20;;;17.30;66.70;;;;;;4995919;28;20040;-75
2022/09/29 12:41:28;;;;;;;;;;;17.30;65.50;;;;;;4996553;28;20451;-77
2022/09/29 12:44:27;;;;;;;4.68;1.30;;;17.20;66.10;;;;;;4996361;28;19917;-76
2022/09/29 12:47:12;;;;;;;0.90;0.90;;;17.20;65.80;;;;;;4995987;28;20054;-75
2022/09/29 12:50:02;;;;;;;1.45;1.10;;;17.10;66.60;;;;;;4995719;28;20423;-76
2022/09/29 12:52:40;;;;;;;1.58;1.20;;;17.00;66.60;;;;;;4995272;28;20033;-77
2022/09/29 12:55:18;;;;;;;1.73;1.38;;;16.90;67.30;;;;;;4995979;28;20475;-77
2022/09/29 12:57:47;;;;;;;1.95;0.90;;;16.80;67.00;;;;;;4995469;28;20037;-77
2022/09/29 13:00:14;;;;;;;1.25;1.00;;;16.80;67.60;;;;;;4995053;28;20022;-76
2022/09/29 13:03:01;;;;;;;1.33;1.13;;;16.60;68.20;;;;;;4995081;28;20331;-74
2022/09/29 13:06:00;;;;;;;1.20;1.10;;;16.60;68.80;;;;;;4995355;28;20081;-75
2022/09/29 13:08:28;;;;;;;1.27;1.08;;;16.50;68.30;;;;;;4995564;28;20030;-76
2022/09/29 13:11:18;;;;;;;1.60;0.90;;;16.50;69.10;;;;;;4995832;28;20437;-76
2022/09/29 13:13:50;;;;;;;4.72;0.98;;;16.50;69.30;;;;;;4995227;28;20106;-77
2022/09/29 13:16:31;;;;;;;1.35;1.25;;;16.40;69.00;;;;;;4995370;28;20343;-76
2022/09/29 13:19:18;;;;;;;3.07;1.47;;;16.40;69.60;;;;;;4995599;28;20110;-76